createdAt,value
2023-03-03T00:09:23.872Z,3.50
2023-03-03T00:34:12.686Z,2.70
2023-03-03T00:39:20.059Z,2.50
2023-03-03T00:51:25.307Z,2.35
2023-03-03T01:03:54.224Z,3.20
2023-03-03T01:14:36.677Z,2.50
2023-03-03T01:24:04.165Z,2.50
2023-03-03T01:35:33.499Z,2.00
2023-03-03T01:42:50.767Z,2.20
2023-03-03T01:51:39.182Z,1.75
2023-03-03T02:05:39.242Z,1.70
2023-03-03T02:14:57.617Z,1.70
2023-03-03T02:28:57.734Z,2.30
2023-03-03T02:35:43.813Z,1.70
2023-03-03T02:45:26.918Z,1.60
2023-03-03T02:59:27.165Z,1.50
2023-03-03T03:16:10.160Z,1.40
2023-03-03T03:19:25.872Z,1.30
2023-03-03T03:33:10.883Z,1.50
2023-03-03T03:38:31.607Z,1.60
2023-03-03T03:52:31.688Z,1.30
2023-03-03T04:00:43.197Z,1.20
2023-03-03T04:02:39.496Z,1.20
2023-03-03T04:06:30.154Z,1.20
2023-03-03T04:24:40.855Z,1.30
2023-03-03T04:38:38.892Z,1.25
2023-03-03T04:45:36.336Z,1.55
2023-03-03T04:53:44.949Z,1.10
2023-03-03T05:21:46.143Z,1.50
2023-03-03T05:46:05.494Z,1.30
2023-03-03T06:06:33.312Z,1.60
2023-03-03T06:27:49.772Z,1.40
2023-03-03T06:35:17.900Z,1.50
2023-03-03T06:49:49.133Z,2.40
2023-03-03T07:01:48.731Z,5.70
2023-03-03T07:05:41.232Z,5.80
2023-03-03T07:19:42.270Z,4.70
2023-03-03T07:45:32.079Z,5.10
2023-03-03T08:00:32.875Z,4.20
2023-03-03T08:03:32.816Z,3.50
2023-03-03T08:13:38.225Z,4.80
2023-03-03T08:30:19.098Z,3.90
2023-03-03T08:45:18.062Z,3.50
2023-03-03T08:56:20.869Z,5.05
2023-03-03T09:03:14.868Z,3.80
2023-03-03T09:18:14.983Z,4.60
2023-03-03T09:33:15.005Z,3.50
2023-03-03T09:36:33.074Z,2.65
2023-03-03T09:45:33.464Z,2.50
2023-03-03T09:54:28.460Z,2.70
2023-03-03T10:06:48.051Z,3.50
2023-03-03T10:13:35.538Z,3.15
2023-03-03T10:29:22.598Z,11.10
2023-03-03T10:34:00.539Z,16.00
2023-03-03T10:58:33.936Z,18.10
2023-03-03T11:01:33.301Z,17.50
2023-03-03T11:09:22.011Z,17.60
2023-03-03T11:19:19.314Z,18.45
2023-03-03T11:33:19.194Z,16.40
2023-03-03T11:45:59.464Z,12.00
2023-03-03T11:58:10.575Z,12.20
2023-03-03T12:04:30.467Z,11.75
2023-03-03T12:18:30.419Z,9.60
2023-03-03T12:25:44.096Z,11.10
2023-03-03T12:32:43.969Z,12.60
2023-03-03T12:43:44.941Z,7.90
2023-03-03T12:46:11.206Z,11.10
2023-03-03T13:05:00.767Z,9.30
2023-03-03T13:07:47.876Z,8.80
2023-03-03T13:11:18.211Z,11.10
2023-03-03T13:22:11.226Z,7.65
2023-03-03T13:24:35.707Z,8.70
2023-03-03T13:38:35.647Z,7.10
2023-03-03T13:41:52.938Z,11.85
2023-03-03T13:45:42.996Z,6.90
2023-03-03T14:00:42.962Z,6.80
2023-03-03T14:15:20.610Z,4.60
2023-03-03T14:30:20.663Z,5.10
2023-03-03T14:33:29.249Z,4.70
2023-03-03T14:37:37.734Z,4.20
2023-03-03T14:54:09.660Z,4.80
2023-03-03T15:04:49.845Z,4.25
2023-03-03T15:10:57.535Z,8.15
2023-03-03T15:25:58.672Z,4.30
2023-03-03T15:32:37.682Z,6.30
2023-03-03T15:49:48.162Z,4.30
2023-03-03T16:00:45.916Z,3.95
2023-03-03T16:12:59.456Z,3.95
2023-03-03T16:18:17.353Z,3.20
2023-03-03T16:22:34.714Z,4.50
2023-03-03T16:28:55.005Z,4.20
2023-03-03T16:43:29.036Z,2.80
2023-03-03T16:58:28.344Z,2.70
2023-03-03T17:03:43.026Z,2.50
2023-03-03T17:15:18.282Z,3.10
2023-03-03T17:27:08.081Z,3.35
2023-03-03T17:39:51.200Z,3.90
2023-03-03T17:47:04.605Z,3.10
2023-03-03T18:01:05.135Z,2.90
2023-03-03T18:05:25.444Z,3.40
2023-03-03T18:12:37.685Z,14.95
2023-03-03T18:25:36.439Z,30.70
2023-03-03T18:39:38.770Z,34.00
2023-03-03T18:44:37.004Z,33.40
2023-03-03T18:54:43.390Z,33.45
2023-03-03T19:07:43.654Z,29.50
2023-03-03T19:15:55.199Z,27.55
2023-03-03T19:29:55.001Z,26.00
2023-03-03T19:37:42.017Z,22.80
2023-03-03T19:47:42.822Z,26.60
2023-03-03T19:58:48.052Z,20.75
2023-03-03T20:01:23.269Z,18.05
2023-03-03T20:11:42.535Z,19.30
2023-03-03T20:17:31.211Z,19.00
2023-03-03T20:21:09.259Z,18.40
2023-03-03T20:28:33.743Z,16.45
2023-03-03T20:32:34.526Z,16.30
2023-03-03T20:38:16.350Z,16.20
2023-03-03T20:49:17.680Z,14.60
2023-03-03T20:55:51.576Z,15.20
2023-03-03T21:03:16.490Z,13.40
2023-03-03T21:17:16.960Z,11.30
2023-03-03T21:30:56.019Z,13.20
2023-03-03T21:45:15.920Z,15.30
2023-03-03T22:00:21.261Z,12.85
2023-03-03T22:10:01.247Z,13.10
2023-03-03T22:16:19.202Z,12.50
2023-03-03T22:28:32.519Z,12.05
2023-03-03T22:42:32.536Z,12.80
2023-03-03T22:50:47.177Z,11.20
2023-03-03T22:59:25.415Z,12.25
2023-03-03T23:13:25.394Z,11.80
2023-03-03T23:18:34.159Z,13.50
2023-03-03T23:23:34.921Z,10.95
2023-03-03T23:34:43.720Z,11.20
2023-03-03T23:47:43.002Z,10.90
2023-03-03T23:52:42.307Z,9.90
